createdAt,value
2023-03-12T00:02:11.611Z,99465.75
2023-03-12T00:04:39.642Z,99478.41
2023-03-12T00:07:08.979Z,99480.84
2023-03-12T00:09:38.590Z,99476.28
2023-03-12T00:12:07.515Z,99494.31
2023-03-12T00:14:35.500Z,99492.44
2023-03-12T00:17:03.421Z,99487.06
2023-03-12T00:19:31.390Z,99495.13
2023-03-12T00:21:59.359Z,99488.72
2023-03-12T00:24:27.352Z,99487.91
2023-03-12T00:26:56.785Z,99481.66
2023-03-12T00:29:24.741Z,99479.81
2023-03-12T00:31:52.749Z,99489.75
2023-03-12T00:34:20.784Z,99493.50
2023-03-12T00:36:48.828Z,99493.50
2023-03-12T00:39:16.762Z,99500.78
2023-03-12T00:41:44.758Z,99499.97
2023-03-12T00:44:14.074Z,99490.22
2023-03-12T00:46:42.055Z,99487.75
2023-03-12T00:49:10.342Z,99485.06
2023-03-12T00:51:38.408Z,99486.91
2023-03-12T00:54:06.423Z,99486.09
2023-03-12T00:56:34.399Z,99489.59
2023-03-12T00:59:02.369Z,99490.47
2023-03-12T01:01:31.794Z,99482.59
2023-03-12T01:04:00.034Z,99487.16
2023-03-12T01:06:28.126Z,99474.50
2023-03-12T01:08:56.537Z,99482.81
2023-03-12T01:11:24.547Z,99486.34
2023-03-12T01:13:52.577Z,99483.66
2023-03-12T01:16:20.554Z,99491.75
2023-03-12T01:18:49.864Z,99479.28
2023-03-12T01:21:17.808Z,99486.34
2023-03-12T01:23:45.847Z,99480.97
2023-03-12T01:26:13.853Z,99476.38
2023-03-12T01:28:41.877Z,99478.00
2023-03-12T01:31:09.977Z,99482.59
2023-03-12T01:33:37.945Z,99480.72
2023-03-12T01:36:14.031Z,99484.22
2023-03-12T01:38:42.011Z,99488.56
2023-03-12T01:41:09.974Z,99485.88
2023-03-12T01:43:38.278Z,99490.69
2023-03-12T01:46:22.678Z,99494.44
2023-03-12T01:48:52.722Z,99491.75
2023-03-12T01:51:22.069Z,99510.00
2023-03-12T01:53:51.297Z,99506.25
2023-03-12T01:56:19.764Z,99509.75
2023-03-12T01:58:50.284Z,99506.25
2023-03-12T02:01:18.396Z,99495.47
2023-03-12T02:03:46.428Z,99493.00
2023-03-12T02:06:15.070Z,99502.94
2023-03-12T02:08:45.338Z,99504.00
2023-03-12T02:11:13.298Z,99517.47
2023-03-12T02:13:41.351Z,99509.41
2023-03-12T02:16:09.497Z,99513.97
2023-03-12T02:18:37.474Z,99520.38
2023-03-12T02:21:09.555Z,99524.97
2023-03-12T02:23:41.484Z,99530.94
2023-03-12T02:26:11.188Z,99541.13
2023-03-12T02:28:43.857Z,99552.72
2023-03-12T02:31:12.450Z,99557.28
2023-03-12T02:33:40.395Z,99555.41
2023-03-12T02:36:09.368Z,99560.59
2023-03-12T02:38:41.685Z,99549.81
2023-03-12T02:41:17.224Z,99567.03
2023-03-12T02:43:46.213Z,99572.44
2023-03-12T02:46:14.222Z,99573.00
2023-03-12T02:48:42.168Z,99583.78
2023-03-12T02:51:10.099Z,99582.97
2023-03-12T02:53:38.147Z,99583.78
2023-03-12T02:56:06.806Z,99594.56
2023-03-12T02:58:36.374Z,99588.34
2023-03-12T03:01:04.321Z,99592.09
2023-03-12T03:03:32.284Z,99591.28
2023-03-12T03:06:00.236Z,99602.06
2023-03-12T03:08:28.273Z,99600.41
2023-03-12T03:10:56.308Z,99607.66
2023-03-12T03:13:24.233Z,99608.72
2023-03-12T03:15:53.521Z,99620.31
2023-03-12T03:18:21.473Z,99614.13
2023-03-12T03:20:56.343Z,99624.91
2023-03-12T03:23:24.270Z,99630.28
2023-03-12T03:25:52.852Z,99632.38
2023-03-12T03:28:20.803Z,99641.28
2023-03-12T03:30:48.830Z,99638.59
2023-03-12T03:33:18.087Z,99640.47
2023-03-12T03:35:46.193Z,99650.41
2023-03-12T03:38:14.208Z,99651.44
2023-03-12T03:40:42.213Z,99652.50
2023-03-12T03:43:10.186Z,99664.91
2023-03-12T03:45:38.248Z,99656.84
2023-03-12T03:48:06.853Z,99657.06
2023-03-12T03:50:36.169Z,99659.53
2023-03-12T03:53:04.118Z,99666.78
2023-03-12T03:55:32.161Z,99674.66
2023-03-12T03:58:00.145Z,99683.56
2023-03-12T04:00:28.147Z,99685.19
2023-03-12T04:02:56.516Z,99677.13
2023-03-12T04:05:25.322Z,99673.41
2023-03-12T04:07:54.710Z,99679.00
2023-03-12T04:10:22.932Z,99677.97
2023-03-12T04:12:50.855Z,99689.78
2023-03-12T04:15:18.829Z,99695.16
2023-03-12T04:17:46.902Z,99702.44
2023-03-12T04:20:15.048Z,99710.50
2023-03-12T04:22:43.016Z,99707.00
2023-03-12T04:25:12.524Z,99712.38
2023-03-12T04:27:40.561Z,99720.69
2023-03-12T04:30:10.021Z,99718.81
2023-03-12T04:32:38.123Z,99713.66
2023-03-12T04:35:06.600Z,99712.84
2023-03-12T04:37:46.822Z,99710.16
2023-03-12T04:40:16.302Z,99712.44
2023-03-12T04:42:44.237Z,99722.56
2023-03-12T04:45:13.016Z,99739.16
2023-03-12T04:47:41.029Z,99735.66
2023-03-12T04:50:09.937Z,99744.56
2023-03-12T04:52:37.886Z,99747.25
2023-03-12T04:55:06.857Z,99746.19
2023-03-12T04:57:36.260Z,99754.28
2023-03-12T05:00:10.196Z,99747.25
2023-03-12T05:02:38.506Z,99761.75
2023-03-12T05:05:07.244Z,99759.66
2023-03-12T05:07:35.288Z,99775.00
2023-03-12T05:10:03.351Z,99767.75
2023-03-12T05:12:31.275Z,99788.28
2023-03-12T05:15:00.550Z,99793.66
2023-03-12T05:17:28.552Z,99795.31
2023-03-12T05:19:56.648Z,99802.56
2023-03-12T05:22:24.592Z,99796.13
2023-03-12T05:24:52.579Z,99808.78
2023-03-12T05:27:20.696Z,99813.09
2023-03-12T05:29:48.622Z,99818.50
2023-03-12T05:32:17.984Z,99821.44
2023-03-12T05:34:45.978Z,99840.03
2023-03-12T05:37:13.932Z,99833.03
2023-03-12T05:39:46.784Z,99839.22
2023-03-12T05:42:14.964Z,99840.03
2023-03-12T05:44:43.000Z,99847.31
2023-03-12T05:47:10.929Z,99846.50
2023-03-12T05:49:40.268Z,99856.22
2023-03-12T05:52:08.608Z,99863.25
2023-03-12T05:54:36.608Z,99859.53
2023-03-12T05:57:04.500Z,99866.56
2023-03-12T05:59:32.591Z,99870.09
2023-03-12T06:02:00.607Z,99872.34
2023-03-12T06:04:28.663Z,99876.66
2023-03-12T06:06:58.014Z,99870.03
2023-03-12T06:09:26.050Z,99876.03
2023-03-12T06:11:54.032Z,99878.50
2023-03-12T06:14:22.110Z,99882.63
2023-03-12T06:16:50.037Z,99880.53
2023-03-12T06:19:18.114Z,99886.53
2023-03-12T06:21:46.070Z,99895.22
2023-03-12T06:24:15.455Z,99899.56
2023-03-12T06:26:43.459Z,99909.06
2023-03-12T06:29:11.534Z,99906.16
2023-03-12T06:31:42.059Z,99904.50
2023-03-12T06:34:10.425Z,99905.09
2023-03-12T06:36:38.434Z,99902.41
2023-03-12T06:39:08.584Z,99904.09
2023-03-12T06:41:38.207Z,99911.94
2023-03-12T06:44:06.479Z,99920.63
2023-03-12T06:46:34.650Z,99916.06
2023-03-12T06:49:02.703Z,99914.00
2023-03-12T06:51:30.650Z,99910.25
2023-03-12T06:54:01.167Z,99909.22
2023-03-12T06:56:29.272Z,99906.09
2023-03-12T06:58:58.697Z,99918.50
2023-03-12T07:01:26.758Z,99922.88
2023-03-12T07:03:54.802Z,99927.81
2023-03-12T07:06:23.639Z,99928.63
2023-03-12T07:08:51.742Z,99931.94
2023-03-12T07:11:19.695Z,99937.94
2023-03-12T07:13:47.704Z,99925.28
2023-03-12T07:16:17.228Z,99939.97
2023-03-12T07:18:45.306Z,99949.94
2023-03-12T07:21:13.266Z,99933.53
2023-03-12T07:23:41.351Z,99929.56
2023-03-12T07:26:09.352Z,99948.81
2023-03-12T07:28:37.358Z,99953.16
2023-03-12T07:31:05.728Z,99945.69
2023-03-12T07:33:35.203Z,99951.06
2023-03-12T07:36:03.493Z,99960.84
2023-03-12T07:38:31.735Z,99961.41
2023-03-12T07:41:00.461Z,99968.47
2023-03-12T07:43:28.692Z,99970.13
2023-03-12T07:45:56.976Z,99976.31
2023-03-12T07:48:25.055Z,99993.13
2023-03-12T07:50:54.447Z,99991.03
2023-03-12T07:53:22.499Z,99994.56
2023-03-12T07:55:50.577Z,100004.91
2023-03-12T07:58:18.774Z,100010.28
2023-03-12T08:00:46.722Z,100009.84
2023-03-12T08:03:14.892Z,100015.84
2023-03-12T08:05:43.194Z,100022.88
2023-03-12T08:08:12.714Z,100029.72
2023-03-12T08:10:40.631Z,100027.41
2023-03-12T08:13:08.715Z,100037.97
2023-03-12T08:15:36.686Z,100029.66
2023-03-12T08:18:04.856Z,100021.56
2023-03-12T08:20:32.889Z,100025.53
2023-03-12T08:23:00.858Z,100030.94
2023-03-12T08:25:30.225Z,100037.16
2023-03-12T08:27:58.100Z,100032.16
2023-03-12T08:30:28.389Z,100037.09
2023-03-12T08:33:03.873Z,100032.53
2023-03-12T08:35:32.066Z,100030.88
2023-03-12T08:38:01.099Z,100034.63
2023-03-12T08:40:30.514Z,100040.84
2023-03-12T08:42:58.477Z,100038.13
2023-03-12T08:45:26.488Z,100035.44
2023-03-12T08:48:03.633Z,100029.22
2023-03-12T08:50:32.304Z,100041.66
2023-03-12T08:53:00.324Z,100050.38
2023-03-12T08:55:28.993Z,100050.16
2023-03-12T08:57:58.744Z,100052.63
2023-03-12T09:00:27.279Z,100036.22
2023-03-12T09:02:58.293Z,100038.69
2023-03-12T09:05:28.191Z,100040.78
2023-03-12T09:07:56.078Z,100038.09
2023-03-12T09:10:24.167Z,100041.59
2023-03-12T09:12:52.102Z,100052.19
2023-03-12T09:15:21.542Z,100051.13
2023-03-12T09:17:50.700Z,100062.75
2023-03-12T09:20:19.011Z,100063.00
2023-03-12T09:22:47.141Z,100060.28
2023-03-12T09:25:15.089Z,100066.28
2023-03-12T09:27:44.226Z,100070.41
2023-03-12T09:30:13.818Z,100079.34
2023-03-12T09:32:44.627Z,100073.53
2023-03-12T09:35:12.657Z,100078.47
2023-03-12T09:37:40.659Z,100077.44
2023-03-12T09:40:10.246Z,100076.16
2023-03-12T09:42:41.448Z,100082.16
2023-03-12T09:45:10.307Z,100082.16
2023-03-12T09:47:42.359Z,100086.28
2023-03-12T09:50:20.714Z,100069.03
2023-03-12T09:52:51.673Z,100081.28
2023-03-12T09:55:21.435Z,100078.56
2023-03-12T09:57:50.615Z,100087.47
2023-03-12T10:00:20.064Z,100076.47
2023-03-12T10:02:57.104Z,100080.00
2023-03-12T10:05:29.373Z,100072.50
2023-03-12T10:08:01.728Z,100078.97
2023-03-12T10:10:41.381Z,100082.25
2023-03-12T10:13:15.619Z,100083.47
2023-03-12T10:15:49.896Z,100082.19
2023-03-12T10:18:22.827Z,100073.28
2023-03-12T10:20:54.960Z,100074.91
2023-03-12T10:23:31.513Z,100075.72
2023-03-12T10:26:00.430Z,100074.69
2023-03-12T10:28:32.494Z,100078.66
2023-03-12T10:31:02.613Z,100070.13
2023-03-12T10:33:38.878Z,100081.53
2023-03-12T10:36:14.690Z,100070.28
2023-03-12T10:38:42.681Z,100085.41
2023-03-12T10:41:15.984Z,100082.50
2023-03-12T10:43:43.903Z,100074.16
2023-03-12T10:46:34.379Z,100072.53
2023-03-12T10:49:24.536Z,100077.72
2023-03-12T10:51:58.014Z,100081.84
2023-03-12T10:54:30.433Z,100085.13
2023-03-12T10:56:58.336Z,100075.97
2023-03-12T10:59:28.833Z,100078.69
2023-03-12T11:01:56.945Z,100074.31
2023-03-12T11:04:28.113Z,100083.03
2023-03-12T11:07:17.485Z,100088.66
2023-03-12T11:09:45.588Z,100077.00
2023-03-12T11:12:24.634Z,100079.25
2023-03-12T11:14:52.606Z,100074.91
2023-03-12T11:17:21.916Z,100077.88
2023-03-12T11:19:49.904Z,100071.25
2023-03-12T11:22:28.642Z,100076.66
2023-03-12T11:24:57.663Z,100068.75
2023-03-12T11:27:32.042Z,100068.19
2023-03-12T11:29:59.941Z,100063.81
2023-03-12T11:32:31.729Z,100072.72
2023-03-12T11:34:59.774Z,100071.91
2023-03-12T11:37:33.027Z,100069.81
2023-03-12T11:40:10.122Z,100065.03
2023-03-12T11:42:45.466Z,100068.75
2023-03-12T11:45:19.160Z,100064.41
2023-03-12T11:47:54.293Z,100061.09
2023-03-12T11:50:28.478Z,100065.47
2023-03-12T11:53:06.000Z,100062.53
2023-03-12T11:55:43.814Z,100066.50
2023-03-12T11:58:37.167Z,100077.31
2023-03-12T12:01:07.933Z,100078.13
2023-03-12T12:03:45.161Z,100075.69
2023-03-12T12:06:14.812Z,100079.41
2023-03-12T12:08:54.803Z,100083.16
2023-03-12T12:11:25.982Z,100077.97
2023-03-12T12:14:02.549Z,100079.03
2023-03-12T12:16:47.273Z,100080.91
2023-03-12T12:19:23.461Z,100077.41
2023-03-12T12:22:10.427Z,100080.31
2023-03-12T12:24:45.908Z,100085.72
2023-03-12T12:27:18.902Z,100085.09
2023-03-12T12:30:14.732Z,100082.81
2023-03-12T12:32:54.120Z,100080.47
2023-03-12T12:35:27.154Z,100074.00
2023-03-12T12:37:56.725Z,100081.53
2023-03-12T12:40:27.168Z,100087.97
2023-03-12T12:42:59.545Z,100081.13
2023-03-12T12:45:30.892Z,100080.91
2023-03-12T12:48:01.693Z,100083.16
2023-03-12T12:50:31.695Z,100082.72
2023-03-12T12:53:02.238Z,100081.44
2023-03-12T12:55:32.665Z,100087.09
2023-03-12T12:58:01.742Z,100075.69
2023-03-12T13:00:39.666Z,100081.06
2023-03-12T13:03:07.720Z,100077.78
2023-03-12T13:05:46.426Z,100080.25
2023-03-12T13:08:50.393Z,100070.28
2023-03-12T13:11:27.872Z,100078.13
2023-03-12T13:14:23.732Z,100077.31
2023-03-12T13:16:51.609Z,100089.78
2023-03-12T13:19:27.277Z,100087.91
2023-03-12T13:22:01.584Z,100093.53
2023-03-12T13:24:31.293Z,100096.22
2023-03-12T13:27:03.631Z,100094.75
2023-03-12T13:29:39.753Z,100088.50
2023-03-12T13:32:24.372Z,100084.38
2023-03-12T13:34:52.409Z,100087.28
2023-03-12T13:37:46.863Z,100091.88
2023-03-12T13:40:39.372Z,100097.50
2023-03-12T13:43:13.163Z,100099.38
2023-03-12T13:45:56.909Z,100093.16
2023-03-12T13:48:24.896Z,100098.91
2023-03-12T13:50:54.622Z,100096.81
2023-03-12T13:53:24.204Z,100095.75
2023-03-12T13:56:00.583Z,100106.34
2023-03-12T13:58:29.905Z,100101.16
2023-03-12T14:00:58.834Z,100107.63
2023-03-12T14:03:27.691Z,100104.94
2023-03-12T14:05:56.544Z,100100.59
2023-03-12T14:08:40.564Z,100096.81
2023-03-12T14:11:19.370Z,100102.59
2023-03-12T14:14:04.753Z,100101.31
2023-03-12T14:16:34.814Z,100100.50
2023-03-12T14:19:03.456Z,100100.75
2023-03-12T14:21:33.901Z,100101.16
2023-03-12T14:24:02.372Z,100101.16
2023-03-12T14:26:31.905Z,100101.41
2023-03-12T14:29:02.778Z,100097.88
2023-03-12T14:31:30.723Z,100096.22
2023-03-12T14:34:01.875Z,100088.13
2023-03-12T14:36:30.726Z,100092.69
2023-03-12T14:39:01.822Z,100099.75
2023-03-12T14:41:30.970Z,100097.19
2023-03-12T14:44:06.378Z,100103.44
2023-03-12T14:46:34.484Z,100100.13
2023-03-12T14:49:02.554Z,100099.53
2023-03-12T14:51:31.590Z,100104.63
2023-03-12T14:54:03.589Z,100108.75
2023-03-12T14:56:33.445Z,100100.59
2023-03-12T14:59:02.722Z,100104.84
2023-03-12T15:01:32.640Z,100095.88
2023-03-12T15:04:02.191Z,100108.28
2023-03-12T15:06:31.344Z,100104.34
2023-03-12T15:08:59.693Z,100102.31
2023-03-12T15:11:28.531Z,100113.19
2023-03-12T15:13:57.080Z,100110.19
2023-03-12T15:16:25.083Z,100111.25
2023-03-12T15:18:54.472Z,100108.97
2023-03-12T15:21:22.419Z,100114.25
2023-03-12T15:23:50.424Z,100113.66
2023-03-12T15:26:29.223Z,100124.91
2023-03-12T15:28:58.226Z,100119.94
2023-03-12T15:31:26.325Z,100123.69
2023-03-12T15:34:03.097Z,100121.16
2023-03-12T15:36:32.683Z,100121.66
2023-03-12T15:39:02.401Z,100123.09
2023-03-12T15:41:37.047Z,100125.94
2023-03-12T15:44:05.050Z,100124.06
2023-03-12T15:46:33.315Z,100131.00
2023-03-12T15:49:02.687Z,100128.13
2023-03-12T15:51:32.660Z,100124.63
2023-03-12T15:54:01.958Z,100127.53
2023-03-12T15:56:29.965Z,100136.91
2023-03-12T15:59:04.701Z,100127.63
2023-03-12T16:01:45.164Z,100128.28
2023-03-12T16:04:14.568Z,100132.00
2023-03-12T16:06:44.334Z,100133.28
2023-03-12T16:09:13.350Z,100135.41
2023-03-12T16:11:41.288Z,100131.03
2023-03-12T16:14:13.580Z,100128.19
2023-03-12T16:16:41.633Z,100136.53
2023-03-12T16:19:14.471Z,100139.44
2023-03-12T16:21:42.556Z,100145.06
2023-03-12T16:24:10.536Z,100145.50
2023-03-12T16:26:39.835Z,100151.75
2023-03-12T16:29:07.869Z,100156.75
2023-03-12T16:31:36.391Z,100165.91
2023-03-12T16:34:04.415Z,100169.66
2023-03-12T16:36:34.003Z,100170.94
2023-03-12T16:39:01.926Z,100180.06
2023-03-12T16:41:30.471Z,100178.88
2023-03-12T16:43:58.968Z,100179.09
2023-03-12T16:46:28.557Z,100181.78
2023-03-12T16:48:56.676Z,100181.41
2023-03-12T16:51:24.672Z,100183.88
2023-03-12T16:54:07.318Z,100189.50
2023-03-12T16:56:37.858Z,100195.94
2023-03-12T16:59:07.279Z,100183.50
2023-03-12T17:01:35.384Z,100188.06
2023-03-12T17:04:04.968Z,100190.16
2023-03-12T17:06:33.244Z,100191.81
2023-03-12T17:09:03.007Z,100198.47
2023-03-12T17:11:32.942Z,100207.41
2023-03-12T17:14:01.967Z,100211.38
2023-03-12T17:16:30.028Z,100209.72
2023-03-12T17:18:58.134Z,100205.38
2023-03-12T17:21:26.085Z,100220.75
2023-03-12T17:23:54.013Z,100224.47
2023-03-12T17:26:23.482Z,100229.88
2023-03-12T17:28:51.408Z,100235.50
2023-03-12T17:31:19.417Z,100238.38
2023-03-12T17:33:47.495Z,100235.91
2023-03-12T17:36:15.765Z,100238.81
2023-03-12T17:38:43.748Z,100236.31
2023-03-12T17:41:25.586Z,100244.66
2023-03-12T17:43:58.539Z,100249.22
2023-03-12T17:46:26.567Z,100247.56
2023-03-12T17:48:54.600Z,100246.94
2023-03-12T17:51:22.706Z,100249.63
2023-03-12T17:53:50.581Z,100251.75
2023-03-12T17:56:19.275Z,100254.44
2023-03-12T17:58:47.203Z,100255.47
2023-03-12T18:01:17.230Z,100266.28
2023-03-12T18:03:45.305Z,100259.22
2023-03-12T18:06:13.361Z,100257.56
2023-03-12T18:08:41.334Z,100266.72
2023-03-12T18:11:09.237Z,100265.06
2023-03-12T18:13:38.869Z,100275.88
2023-03-12T18:16:08.637Z,100282.91
2023-03-12T18:18:37.966Z,100293.69
2023-03-12T18:21:06.309Z,100280.44
2023-03-12T18:23:34.327Z,100292.06
2023-03-12T18:26:02.264Z,100292.06
2023-03-12T18:28:30.199Z,100297.44
2023-03-12T18:30:58.253Z,100298.47
2023-03-12T18:33:26.290Z,100299.31
2023-03-12T18:35:55.570Z,100300.34
2023-03-12T18:38:23.565Z,100305.75
2023-03-12T18:40:51.688Z,100308.44
2023-03-12T18:43:21.732Z,100310.31
2023-03-12T18:45:51.030Z,100310.75
2023-03-12T18:48:18.956Z,100308.06
2023-03-12T18:50:46.936Z,100310.75
2023-03-12T18:53:16.222Z,100316.16
2023-03-12T18:55:52.084Z,100313.66
2023-03-12T18:58:22.778Z,100317.63
2023-03-12T19:00:52.040Z,100309.53
2023-03-12T19:03:20.062Z,100316.59
2023-03-12T19:05:48.161Z,100316.78
2023-03-12T19:08:17.726Z,100321.38
2023-03-12T19:10:46.530Z,100320.31
2023-03-12T19:13:15.523Z,100316.78
2023-03-12T19:15:43.846Z,100315.75
2023-03-12T19:18:12.326Z,100331.09
2023-03-12T19:20:40.278Z,100325.72
2023-03-12T19:23:08.225Z,100333.19
2023-03-12T19:25:37.577Z,100341.06
2023-03-12T19:28:05.545Z,100340.25
2023-03-12T19:30:33.584Z,100341.28
2023-03-12T19:33:01.663Z,100334.88
2023-03-12T19:35:29.625Z,100343.78
2023-03-12T19:37:59.514Z,100347.53
2023-03-12T19:40:27.409Z,100341.06
2023-03-12T19:42:56.683Z,100341.06
2023-03-12T19:45:24.626Z,100333.81
2023-03-12T19:47:53.324Z,100338.19
2023-03-12T19:50:21.313Z,100341.91
2023-03-12T19:52:49.268Z,100342.72
2023-03-12T19:55:17.580Z,100346.28
2023-03-12T19:57:45.761Z,100350.00
2023-03-12T20:00:15.925Z,100358.09
2023-03-12T20:02:45.863Z,100352.69
2023-03-12T20:05:13.899Z,100358.09
2023-03-12T20:07:41.905Z,100367.25
2023-03-12T20:10:11.181Z,100359.16
2023-03-12T20:12:39.483Z,100362.88
2023-03-12T20:15:08.459Z,100370.97
2023-03-12T20:17:38.040Z,100368.25
2023-03-12T20:20:08.417Z,100374.72
2023-03-12T20:22:37.062Z,100374.72
2023-03-12T20:25:05.307Z,100373.06
2023-03-12T20:27:34.202Z,100378.47
2023-03-12T20:30:03.724Z,100380.09
2023-03-12T20:32:31.913Z,100378.47
2023-03-12T20:35:01.321Z,100381.16
2023-03-12T20:37:29.315Z,100376.78
2023-03-12T20:39:58.003Z,100376.78
2023-03-12T20:42:25.957Z,100391.94
2023-03-12T20:44:53.873Z,100382.19
2023-03-12T20:47:22.222Z,100384.69
2023-03-12T20:49:50.191Z,100393.84
2023-03-12T20:52:19.544Z,100385.75
2023-03-12T20:54:47.487Z,100389.25
2023-03-12T20:57:15.421Z,100391.13
2023-03-12T20:59:43.404Z,100405.44
2023-03-12T21:02:13.971Z,100392.78
2023-03-12T21:04:42.108Z,100393.84
2023-03-12T21:07:10.145Z,100393.59
2023-03-12T21:09:39.569Z,100396.31
2023-03-12T21:12:07.870Z,100398.38
2023-03-12T21:14:35.974Z,100397.56
2023-03-12T21:17:04.183Z,100398.38
2023-03-12T21:19:32.350Z,100394.03
2023-03-12T21:22:00.330Z,100390.28
2023-03-12T21:24:28.440Z,100392.97
2023-03-12T21:26:57.760Z,100392.38
2023-03-12T21:29:25.767Z,100387.00
2023-03-12T21:31:53.911Z,100389.69
2023-03-12T21:34:21.911Z,100387.19
2023-03-12T21:36:49.878Z,100388.00
2023-03-12T21:39:18.879Z,100389.88
2023-03-12T21:41:46.860Z,100392.59
2023-03-12T21:44:16.775Z,100391.75
2023-03-12T21:46:45.195Z,100395.47
2023-03-12T21:49:14.040Z,100391.75
2023-03-12T21:51:42.093Z,100406.28
2023-03-12T21:54:09.995Z,100395.47
2023-03-12T21:56:37.902Z,100395.47
2023-03-12T21:59:05.788Z,100395.47
2023-03-12T22:01:35.217Z,100396.34
2023-03-12T22:04:05.588Z,100393.84
2023-03-12T22:06:33.965Z,100393.00
2023-03-12T22:09:01.966Z,100395.72
2023-03-12T22:11:29.996Z,100398.59
2023-03-12T22:13:57.899Z,100407.53
2023-03-12T22:16:25.908Z,100415.63
2023-03-12T22:18:55.296Z,100410.44
2023-03-12T22:21:23.960Z,100404.22
2023-03-12T22:23:54.188Z,100405.06
2023-03-12T22:26:22.631Z,100415.03
2023-03-12T22:28:51.497Z,100403.38
2023-03-12T22:31:20.124Z,100400.91
2023-03-12T22:33:48.215Z,100400.09
2023-03-12T22:36:17.780Z,100401.94
2023-03-12T22:38:47.751Z,100396.75
2023-03-12T22:41:16.718Z,100400.50
2023-03-12T22:43:44.902Z,100398.63
2023-03-12T22:46:12.957Z,100399.88
2023-03-12T22:48:40.855Z,100393.44
2023-03-12T22:51:08.958Z,100402.59
2023-03-12T22:53:38.277Z,100402.59
2023-03-12T22:56:07.321Z,100408.19
2023-03-12T22:58:35.368Z,100403.00
2023-03-12T23:01:03.812Z,100404.84
2023-03-12T23:03:33.527Z,100407.56
2023-03-12T23:06:01.593Z,100412.13
2023-03-12T23:08:30.181Z,100407.78
2023-03-12T23:11:00.456Z,100415.06
2023-03-12T23:13:28.982Z,100407.16
2023-03-12T23:15:56.926Z,100413.38
2023-03-12T23:18:24.993Z,100425.84
2023-03-12T23:20:58.921Z,100431.22
2023-03-12T23:23:26.915Z,100431.22
2023-03-12T23:25:55.035Z,100424.97
2023-03-12T23:28:24.391Z,100436.63
2023-03-12T23:30:56.566Z,100430.38
2023-03-12T23:33:24.878Z,100432.06
2023-03-12T23:35:56.866Z,100416.91
2023-03-12T23:38:25.231Z,100418.78
2023-03-12T23:40:53.125Z,100413.38
2023-03-12T23:43:21.019Z,100410.91
2023-03-12T23:45:56.668Z,100405.50
2023-03-12T23:48:24.772Z,100399.50
2023-03-12T23:50:52.660Z,100399.50
2023-03-12T23:53:20.614Z,100399.69
2023-03-12T23:55:58.140Z,100405.91
2023-03-12T23:58:26.242Z,100406.94
